Time;durP1;ratioP1;P1;durP2;ratioP2;P2;SDS_P1;SDS_P2;PMS_P1;PMS_P2;Temp;Humidity;BMP_temperature;BMP_pressure;BME280_temperature;BME280_humidity;BME280_pressure;Samples;Min_cycle;Max_cycle;Signal;HPM_P1;HPM_P2
2022/05/03 00:01:50;;;;;;;7.65;6.85;;;9.50;99.90;;;;;;7319751;32;20107;-60
2022/05/03 00:06:05;;;;;;;12.20;7.55;;;9.40;99.90;;;;;;7238253;32;20172;-59
2022/05/03 00:10:09;;;;;;;11.40;8.20;;;9.20;99.90;;;;;;7281085;32;20412;-60
2022/05/03 00:14:26;;;;;;;12.82;7.78;;;9.00;99.90;;;;;;7313713;32;20153;-59
2022/05/03 00:18:28;;;;;;;11.87;8.33;;;8.90;99.90;;;;;;7317449;32;20126;-59
2022/05/03 00:22:31;;;;;;;11.43;8.32;;;8.70;99.90;;;;;;7319479;32;20193;-59
2022/05/03 00:26:34;;;;;;;10.25;7.78;;;8.60;99.90;;;;;;7308609;32;20207;-59
2022/05/03 00:30:37;;;;;;;11.85;7.25;;;8.60;99.90;;;;;;7316271;32;20633;-60
2022/05/03 00:34:39;;;;;;;14.90;7.68;;;8.50;99.90;;;;;;7318794;32;20428;-60
2022/05/03 00:38:41;;;;;;;10.50;7.55;;;8.50;99.90;;;;;;7320837;32;20723;-60
2022/05/03 00:43:14;;;;;;;11.40;7.20;;;8.40;99.90;;;;;;7311620;32;20246;-61
2022/05/03 00:47:20;;;;;;;11.10;7.03;;;8.40;99.90;;;;;;7318119;32;20178;-60
2022/05/03 00:51:41;;;;;;;8.15;6.43;;;8.40;99.90;;;;;;7320445;32;20107;-61
2022/05/03 00:55:43;;;;;;;13.25;6.22;;;8.50;99.90;;;;;;7314421;32;20111;-59
2022/05/03 01:00:05;;;;;;;8.57;6.45;;;8.40;99.90;;;;;;7316980;32;20245;-60
2022/05/03 01:04:11;;;;;;;8.57;6.07;;;8.40;99.90;;;;;;7314612;32;20186;-59
2022/05/03 01:08:28;;;;;;;9.75;6.07;;;8.30;99.90;;;;;;7315885;32;20534;-60
2022/05/03 01:12:58;;;;;;;8.37;6.27;;;8.20;99.90;;;;;;7311184;32;20198;-59
2022/05/03 01:17:13;;;;;;;9.68;6.70;;;8.10;99.90;;;;;;7304634;32;20575;-60
2022/05/03 01:21:33;;;;;;;10.35;6.45;;;8.20;99.90;;;;;;7313872;32;20646;-59
2022/05/03 01:26:12;;;;;;;8.27;6.62;;;8.20;99.90;;;;;;7319167;32;20201;-60
2022/05/03 01:30:14;;;;;;;9.30;6.62;;;8.10;99.90;;;;;;7315376;32;20827;-59
2022/05/03 01:34:19;;;;;;;9.63;6.35;;;8.10;99.90;;;;;;7321056;32;20125;-61
2022/05/03 01:38:31;;;;;;;7.80;6.18;;;8.00;99.90;;;;;;7317906;32;20440;-59
2022/05/03 01:42:51;;;;;;;10.80;7.60;;;8.00;99.90;;;;;;7318860;32;20750;-59
2022/05/03 01:47:03;;;;;;;9.88;6.68;;;7.90;99.90;;;;;;7317526;32;20183;-60
2022/05/03 01:51:14;;;;;;;10.23;6.78;;;7.90;99.90;;;;;;7319732;32;20716;-60
2022/05/03 01:56:03;;;;;;;10.40;6.35;;;7.90;99.90;;;;;;7318812;32;20897;-59
2022/05/03 02:00:07;;;;;;;14.98;6.70;;;7.80;99.90;;;;;;7316073;32;20558;-59
2022/05/03 02:04:29;;;;;;;12.50;6.78;;;7.80;99.90;;;;;;7312349;32;20103;-59
2022/05/03 02:09:03;;;;;;;7.35;6.18;;;7.80;99.90;;;;;;7316332;32;20414;-59
2022/05/03 02:14:43;;;;;;;9.82;6.15;;;7.70;99.90;;;;;;7308806;32;20115;-60
2022/05/03 02:18:05;;;;;;;9.27;7.05;;;7.60;99.90;;;;;;7322746;32;20163;-60
2022/05/03 02:22:28;;;;;;;9.95;7.03;;;7.60;99.90;;;;;;7314961;32;20273;-59
2022/05/03 02:26:37;;;;;;;12.05;6.93;;;7.50;99.90;;;;;;7313117;32;20607;-59
2022/05/03 02:30:41;;;;;;;10.27;6.35;;;7.40;99.90;;;;;;7313269;32;21744;-60
2022/05/03 02:34:47;;;;;;;10.88;6.82;;;7.40;99.90;;;;;;7318511;32;20158;-60
2022/05/03 02:39:12;;;;;;;10.30;7.28;;;7.40;99.90;;;;;;7316524;32;20254;-60
2022/05/03 02:43:16;;;;;;;11.52;6.60;;;7.30;99.90;;;;;;7318272;32;20537;-60
2022/05/03 02:47:36;;;;;;;8.68;6.87;;;7.30;99.90;;;;;;7310170;32;20134;-60
2022/05/03 02:51:49;;;;;;;11.40;6.40;;;7.20;99.90;;;;;;7313926;32;20104;-60
2022/05/03 02:55:58;;;;;;;8.07;6.07;;;7.10;99.90;;;;;;7307975;32;20636;-59
2022/05/03 03:04:43;;;;;;;;;;;6.80;99.90;;;;;;7315202;32;20230;-60
2022/05/03 03:08:45;;;;;;;10.90;6.68;;;6.70;99.90;;;;;;7316831;32;20015;-60
2022/05/03 03:12:47;;;;;;;8.40;6.45;;;6.60;99.90;;;;;;7317909;32;20575;-60
2022/05/03 03:16:54;;;;;;;8.80;6.22;;;6.60;99.90;;;;;;7312814;32;20126;-60
2022/05/03 03:21:04;;;;;;;8.30;6.37;;;6.60;99.90;;;;;;7315050;32;20203;-59
2022/05/03 03:25:08;;;;;;;11.12;6.65;;;6.60;99.90;;;;;;7317722;32;20112;-60
2022/05/03 03:29:12;;;;;;;9.57;6.50;;;6.50;99.90;;;;;;7317468;32;20357;-60
2022/05/03 03:33:16;;;;;;;12.07;7.32;;;6.40;99.90;;;;;;7316926;32;20154;-60
2022/05/03 03:37:22;;;;;;;10.02;7.60;;;6.30;99.90;;;;;;7322105;32;20597;-60
2022/05/03 03:41:24;;;;;;;11.50;7.47;;;6.30;99.90;;;;;;7320431;32;20573;-59
2022/05/03 03:45:27;;;;;;;9.20;6.53;;;6.30;99.90;;;;;;7318708;32;20190;-60
2022/05/03 03:49:29;;;;;;;10.05;6.85;;;6.10;99.90;;;;;;7321119;32;20206;-59
2022/05/03 03:53:32;;;;;;;8.77;6.37;;;6.10;99.90;;;;;;7317435;32;20652;-60
2022/05/03 03:57:35;;;;;;;13.52;7.68;;;6.10;99.90;;;;;;7318565;32;20242;-60
2022/05/03 04:01:38;;;;;;;11.32;7.03;;;5.90;99.90;;;;;;7317741;32;20171;-60
2022/05/03 04:05:39;;;;;;;8.93;6.80;;;5.90;99.90;;;;;;7322764;32;20675;-59
2022/05/03 04:09:41;;;;;;;8.20;6.05;;;5.80;99.90;;;;;;7320546;32;20186;-59
2022/05/03 04:13:44;;;;;;;9.63;7.00;;;5.80;99.90;;;;;;7319163;32;20111;-60
2022/05/03 04:17:45;;;;;;;11.15;7.15;;;5.70;99.90;;;;;;7317469;32;20151;-60
2022/05/03 04:21:48;;;;;;;12.68;7.07;;;5.80;99.90;;;;;;7319919;32;20230;-60
2022/05/03 04:25:49;;;;;;;10.63;6.85;;;5.70;99.90;;;;;;7318384;32;20107;-60
2022/05/03 04:29:51;;;;;;;10.38;7.45;;;5.70;99.90;;;;;;7315465;32;20304;-60
2022/05/03 04:33:55;;;;;;;9.13;6.90;;;5.70;99.90;;;;;;7318089;32;20408;-60
2022/05/03 04:37:57;;;;;;;14.95;7.30;;;5.70;99.90;;;;;;7317902;32;20112;-59
2022/05/03 04:41:59;;;;;;;10.48;7.18;;;5.70;99.90;;;;;;7312677;32;20274;-60
2022/05/03 04:46:01;;;;;;;12.23;8.05;;;5.80;99.90;;;;;;7316391;32;20139;-64
2022/05/03 04:50:03;;;;;;;10.45;7.40;;;5.90;99.90;;;;;;7319795;32;20115;-63
2022/05/03 04:54:04;;;;;;;11.02;7.40;;;6.00;99.90;;;;;;7317718;32;20211;-62
2022/05/03 04:58:07;;;;;;;9.60;6.75;;;6.10;99.90;;;;;;7311874;32;20142;-63
2022/05/03 05:02:09;;;;;;;12.25;8.45;;;6.20;99.90;;;;;;7307393;32;20147;-64
2022/05/03 05:06:11;;;;;;;17.90;8.13;;;6.30;99.90;;;;;;7315077;32;20597;-63
2022/05/03 05:10:26;;;;;;;10.43;7.50;;;6.60;99.90;;;;;;7314865;32;20134;-61
2022/05/03 05:14:28;;;;;;;16.75;10.18;;;6.50;99.90;;;;;;7316746;32;20443;-61
2022/05/03 05:18:30;;;;;;;13.20;9.32;;;6.60;99.90;;;;;;7318583;32;20100;-62
2022/05/03 05:22:32;;;;;;;12.07;7.28;;;6.80;99.90;;;;;;7313032;32;20250;-62
2022/05/03 05:26:33;;;;;;;11.68;6.93;;;6.90;99.90;;;;;;7318933;32;20112;-63
2022/05/03 05:30:35;;;;;;;10.80;6.80;;;7.00;99.90;;;;;;7312643;32;20104;-64
2022/05/03 05:34:37;;;;;;;12.45;7.35;;;7.10;99.90;;;;;;7311540;32;20543;-64
2022/05/03 05:38:38;;;;;;;10.35;6.95;;;7.30;99.90;;;;;;7318924;32;20142;-64
2022/05/03 05:42:40;;;;;;;8.25;6.37;;;7.50;99.90;;;;;;7307169;32;22030;-62
2022/05/03 05:46:42;;;;;;;10.48;6.18;;;7.60;99.90;;;;;;7306062;32;20164;-63
2022/05/03 05:50:44;;;;;;;11.63;6.78;;;7.70;99.90;;;;;;7309970;32;20307;-63
2022/05/03 05:54:45;;;;;;;9.73;6.35;;;7.80;99.90;;;;;;7312136;32;20107;-63
2022/05/03 05:58:47;;;;;;;19.67;12.85;;;7.90;99.90;;;;;;7312523;32;20862;-64
2022/05/03 06:02:49;;;;;;;10.77;6.47;;;8.10;99.90;;;;;;7312405;32;20479;-61
2022/05/03 06:06:50;;;;;;;12.10;6.10;;;8.20;99.90;;;;;;7314786;32;20146;-61
2022/05/03 06:10:52;;;;;;;9.30;5.95;;;8.30;99.90;;;;;;7311165;32;20523;-63
2022/05/03 06:14:54;;;;;;;9.02;5.43;;;8.50;99.90;;;;;;7310973;32;20115;-64
2022/05/03 06:18:55;;;;;;;8.15;5.32;;;8.70;99.90;;;;;;7311493;32;20473;-62
2022/05/03 06:22:57;;;;;;;8.73;4.93;;;8.90;99.90;;;;;;7311460;32;20748;-65
2022/05/03 06:26:59;;;;;;;10.60;4.93;;;9.00;99.90;;;;;;7311375;32;20280;-64
2022/05/03 06:31:00;;;;;;;6.62;4.32;;;9.20;99.90;;;;;;7311179;32;20187;-63
2022/05/03 06:35:03;;;;;;;7.68;4.78;;;9.30;99.90;;;;;;7310296;32;20294;-63
2022/05/03 06:39:06;;;;;;;8.25;4.45;;;9.40;99.90;;;;;;7308131;32;20694;-63
2022/05/03 06:43:08;;;;;;;5.00;4.10;;;9.50;99.90;;;;;;7308876;32;20112;-63
2022/05/03 06:47:10;;;;;;;5.87;4.03;;;9.50;99.90;;;;;;7309071;32;20533;-64
2022/05/03 06:51:11;;;;;;;6.82;4.65;;;9.80;99.90;;;;;;7313226;32;20277;-64
2022/05/03 06:55:13;;;;;;;6.82;4.10;;;10.10;99.90;;;;;;7312165;32;20476;-63
2022/05/03 06:59:15;;;;;;;7.07;4.45;;;10.40;99.90;;;;;;7304835;32;20112;-64
2022/05/03 07:03:17;;;;;;;7.15;3.95;;;10.60;99.90;;;;;;7309543;32;20138;-64
2022/05/03 07:07:19;;;;;;;5.53;3.53;;;11.20;99.90;;;;;;7314793;32;20131;-64
2022/05/03 07:11:20;;;;;;;6.20;3.97;;;11.30;99.90;;;;;;7317346;32;20236;-65
2022/05/03 07:15:24;;;;;;;5.00;3.50;;;11.70;99.90;;;;;;7314081;32;20249;-64
2022/05/03 07:23:57;;;;;;;6.15;3.22;;;12.50;99.90;;;;;;7278535;32;20280;-64
2022/05/03 07:27:59;;;;;;;10.00;3.40;;;12.60;99.90;;;;;;7305561;32;20119;-64
2022/05/03 07:32:00;;;;;;;6.35;3.50;;;13.20;99.90;;;;;;7316979;32;20123;-63
2022/05/03 07:36:05;;;;;;;6.53;3.30;;;13.50;99.90;;;;;;7313938;32;20238;-64
2022/05/03 07:40:08;;;;;;;5.00;3.37;;;13.40;99.90;;;;;;7319233;32;20146;-63
2022/05/03 07:44:10;;;;;;;7.75;4.00;;;13.60;99.90;;;;;;7313090;32;20130;-63
2022/05/03 07:48:12;;;;;;;7.15;3.60;;;13.20;99.90;;;;;;7317100;32;20336;-62
2022/05/03 07:52:13;;;;;;;5.00;3.47;;;13.00;99.90;;;;;;7315152;32;20531;-61
2022/05/03 07:56:15;;;;;;;5.93;3.53;;;12.70;99.90;;;;;;7319070;32;20134;-63
2022/05/03 08:00:17;;;;;;;4.95;3.60;;;12.50;99.90;;;;;;7316857;32;20480;-62
2022/05/03 08:04:19;;;;;;;10.77;4.57;;;12.60;99.90;;;;;;7315861;32;20104;-63
2022/05/03 08:08:20;;;;;;;6.57;3.80;;;12.80;99.90;;;;;;7315630;32;20111;-62
2022/05/03 08:12:22;;;;;;;4.87;3.65;;;12.80;99.90;;;;;;7318355;32;20337;-63
2022/05/03 08:16:25;;;;;;;6.82;3.62;;;12.90;99.90;;;;;;7318357;32;20130;-64
2022/05/03 08:20:26;;;;;;;6.18;3.50;;;13.10;99.90;;;;;;7318865;32;20460;-63
2022/05/03 08:24:32;;;;;;;4.97;3.20;;;13.40;99.90;;;;;;7315837;32;20250;-63
2022/05/03 08:28:34;;;;;;;5.45;3.70;;;13.60;99.90;;;;;;7318142;32;20107;-62
2022/05/03 08:32:36;;;;;;;7.40;2.92;;;14.00;99.90;;;;;;7314497;32;20133;-62
2022/05/03 08:36:38;;;;;;;12.45;3.83;;;14.40;99.90;;;;;;7318171;32;20491;-62
2022/05/03 08:45:01;;;;;;;9.73;3.20;;;15.10;98.60;;;;;;7314460;32;20222;-64
2022/05/03 08:49:04;;;;;;;6.75;2.62;;;16.30;95.20;;;;;;7313991;32;20968;-64
2022/05/03 08:53:06;;;;;;;8.25;3.37;;;17.00;95.00;;;;;;7317463;32;20593;-63
2022/05/03 08:57:08;;;;;;;3.50;2.28;;;17.00;87.20;;;;;;7316957;32;20444;-63
2022/05/03 09:01:11;;;;;;;5.37;2.65;;;18.10;86.30;;;;;;7316880;32;20875;-64
2022/05/03 09:05:13;;;;;;;5.10;2.53;;;18.40;78.60;;;;;;7318096;32;20139;-64
2022/05/03 09:09:18;;;;;;;5.37;2.45;;;19.30;75.40;;;;;;7315778;32;20187;-63
2022/05/03 09:13:23;;;;;;;4.87;3.12;;;20.60;70.40;;;;;;7315171;32;20219;-63
2022/05/03 09:17:44;;;;;;;5.15;2.83;;;19.50;64.70;;;;;;7315706;32;20269;-63
2022/05/03 09:26:14;;;;;;;4.35;1.80;;;19.90;69.10;;;;;;7311996;32;20238;-64
2022/05/03 09:30:16;;;;;;;;;;;20.40;60.80;;;;;;7311176;32;20134;-64
2022/05/03 09:34:26;;;;;;;2.75;2.15;;;20.50;59.50;;;;;;7316471;32;20149;-63
2022/05/03 09:38:28;;;;;;;3.90;1.87;;;20.30;58.50;;;;;;7300353;32;21565;-62
2022/05/03 09:42:30;;;;;;;4.68;1.70;;;20.10;64.00;;;;;;7317465;32;20111;-64
2022/05/03 09:46:52;;;;;;;4.12;1.85;;;20.20;60.50;;;;;;7318168;32;20111;-64
2022/05/03 09:50:55;;;;;;;5.25;2.10;;;20.10;63.50;;;;;;7307872;32;20463;-64
2022/05/03 09:55:07;;;;;;;3.72;2.05;;;20.10;58.60;;;;;;7311380;32;20592;-63
2022/05/03 09:59:09;;;;;;;5.85;2.05;;;20.10;58.50;;;;;;7313668;32;20134;-64
2022/05/03 10:03:11;;;;;;;2.97;1.80;;;20.20;57.60;;;;;;7313928;32;20130;-65
2022/05/03 10:07:14;;;;;;;7.22;1.80;;;20.10;61.80;;;;;;7308734;32;20939;-62
2022/05/03 10:11:17;;;;;;;3.45;1.65;;;19.60;58.80;;;;;;7312959;32;20173;-63
2022/05/03 10:24:55;;;;;;;6.30;2.22;;;19.80;58.40;;;;;;7307277;32;20204;-62
2022/05/03 10:29:07;;;;;;;3.97;2.50;;;20.20;57.40;;;;;;7309017;32;20194;-62
2022/05/03 10:33:21;;;;;;;5.25;2.55;;;20.00;60.30;;;;;;7307634;32;20164;-61
2022/05/03 10:37:33;;;;;;;4.53;2.08;;;20.30;58.40;;;;;;7310106;32;20625;-63
2022/05/03 10:41:52;;;;;;;6.03;2.33;;;20.10;57.30;;;;;;7313932;32;20187;-64
2022/05/03 10:46:07;;;;;;;5.20;2.67;;;19.80;60.50;;;;;;7312859;32;20158;-63
2022/05/03 10:50:12;;;;;;;4.25;2.22;;;19.90;57.90;;;;;;7316539;32;20107;-64
2022/05/03 10:54:14;;;;;;;4.32;3.30;;;19.80;61.10;;;;;;7311030;32;20556;-64
2022/05/03 10:58:30;;;;;;;5.47;3.17;;;19.80;59.70;;;;;;7313874;32;20169;-64
2022/05/03 11:02:32;;;;;;;7.63;3.10;;;19.90;63.90;;;;;;7317706;32;20218;-64
2022/05/03 11:06:41;;;;;;;6.45;4.05;;;18.90;57.80;;;;;;7316654;32;20292;-64
2022/05/03 11:10:44;;;;;;;4.15;2.85;;;18.50;60.30;;;;;;7312732;32;20232;-64
2022/05/03 11:14:50;;;;;;;8.55;2.92;;;18.80;66.60;;;;;;7313499;32;20716;-64
2022/05/03 11:18:55;;;;;;;8.68;4.00;;;18.40;65.00;;;;;;7317117;32;20133;-63
2022/05/03 11:22:57;;;;;;;6.45;3.95;;;18.30;63.60;;;;;;7309495;32;20617;-62
2022/05/03 11:27:01;;;;;;;6.03;4.15;;;18.30;63.50;;;;;;7317928;32;21169;-64
2022/05/03 11:31:03;;;;;;;6.10;3.87;;;18.10;62.00;;;;;;7309451;32;20358;-63
2022/05/03 11:35:10;;;;;;;5.47;3.58;;;18.10;66.40;;;;;;7315214;32;20578;-63
2022/05/03 11:39:13;;;;;;;5.80;3.60;;;18.30;66.20;;;;;;7309638;32;20567;-63
2022/05/03 11:43:16;;;;;;;4.45;3.40;;;18.60;66.30;;;;;;7310652;32;20549;-64
2022/05/03 11:47:19;;;;;;;4.78;3.95;;;18.50;65.80;;;;;;7310283;32;20119;-64
2022/05/03 11:56:01;;;;;;;6.80;3.90;;;18.20;63.70;;;;;;7316834;32;20120;-57
2022/05/03 12:00:05;;;;;;;9.02;3.90;;;18.10;63.50;;;;;;7314815;32;20186;-57
2022/05/03 12:04:08;;;;;;;8.05;3.83;;;18.20;63.90;;;;;;7316787;32;20241;-58
2022/05/03 12:08:19;;;;;;;5.03;3.85;;;18.30;65.40;;;;;;7317497;32;20729;-64
2022/05/03 12:12:45;;;;;;;5.20;3.78;;;18.30;66.10;;;;;;7319038;32;20115;-64
2022/05/03 12:16:49;;;;;;;4.45;3.67;;;18.20;66.10;;;;;;7319385;32;20142;-63
2022/05/03 12:20:59;;;;;;;6.62;3.90;;;18.50;67.30;;;;;;7317648;32;20700;-65
2022/05/03 12:25:01;;;;;;;5.40;4.15;;;18.30;64.10;;;;;;7323535;32;20349;-65
2022/05/03 12:29:04;;;;;;;8.23;4.57;;;18.30;64.20;;;;;;7315757;32;20258;-64
2022/05/03 12:33:08;;;;;;;4.95;4.07;;;17.90;61.80;;;;;;7313062;32;20205;-64
2022/05/03 12:37:10;;;;;;;6.22;4.18;;;18.20;63.00;;;;;;7319383;32;20194;-65
2022/05/03 12:41:23;;;;;;;5.37;3.17;;;18.40;63.70;;;;;;7312273;32;20427;-64
2022/05/03 12:45:33;;;;;;;5.95;3.40;;;18.60;66.60;;;;;;7316557;32;20205;-64
2022/05/03 12:49:35;;;;;;;6.18;3.53;;;18.60;65.00;;;;;;7313815;32;20539;-64
2022/05/03 12:53:37;;;;;;;4.75;3.85;;;18.90;66.50;;;;;;7315487;32;20130;-65
2022/05/03 13:02:03;;;;;;;5.60;4.25;;;18.80;63.90;;;;;;7314761;32;20217;-64
2022/05/03 13:06:05;;;;;;;6.28;3.95;;;18.60;63.20;;;;;;7314514;32;20119;-64
2022/05/03 13:10:07;;;;;;;4.15;3.53;;;18.70;65.40;;;;;;7318533;32;20142;-65
2022/05/03 13:14:10;;;;;;;6.03;3.78;;;18.90;62.60;;;;;;7316986;32;20147;-63
2022/05/03 13:18:12;;;;;;;4.18;3.17;;;19.00;60.30;;;;;;7313466;32;20143;-64
2022/05/03 13:22:13;;;;;;;8.10;3.50;;;19.30;64.80;;;;;;7317611;32;20594;-62
2022/05/03 13:26:15;;;;;;;5.07;3.25;;;19.30;62.10;;;;;;7310678;32;20111;-64
2022/05/03 13:30:17;;;;;;;6.80;4.00;;;19.20;64.40;;;;;;7305894;32;20157;-57
2022/05/03 13:34:19;;;;;;;6.55;3.90;;;19.40;63.30;;;;;;7311098;32;20214;-58
2022/05/03 13:42:41;;;;;;;5.53;3.70;;;19.10;64.70;;;;;;7317376;32;20142;-63
2022/05/03 13:46:43;;;;;;;6.97;3.25;;;19.00;61.30;;;;;;7313951;32;20138;-58
2022/05/03 13:50:44;;;;;;;3.97;3.22;;;19.30;61.70;;;;;;7313839;32;20107;-58
2022/05/03 13:54:46;;;;;;;9.10;4.30;;;19.30;61.50;;;;;;7315687;32;20142;-58
2022/05/03 13:58:48;;;;;;;8.10;3.12;;;19.30;60.30;;;;;;7310768;32;20162;-58
2022/05/03 14:02:49;;;;;;;5.22;3.67;;;19.10;62.40;;;;;;7309920;32;20536;-58
2022/05/03 14:06:51;;;;;;;5.80;2.75;;;19.00;60.10;;;;;;7311697;32;20176;-58
2022/05/03 14:10:53;;;;;;;5.32;3.00;;;19.20;62.80;;;;;;7311048;32;20103;-58
2022/05/03 14:14:55;;;;;;;3.47;2.75;;;19.20;62.00;;;;;;7296609;32;20162;-64
2022/05/03 14:19:02;;;;;;;3.75;2.97;;;19.30;64.00;;;;;;7318683;32;20314;-63
2022/05/03 14:23:04;;;;;;;4.50;3.00;;;19.60;59.50;;;;;;7313552;32;20138;-63
2022/05/03 14:27:06;;;;;;;4.18;2.67;;;19.50;59.90;;;;;;7317668;32;20594;-61
2022/05/03 14:31:07;;;;;;;3.30;2.72;;;19.50;60.80;;;;;;7310891;32;20116;-63
2022/05/03 14:35:10;;;;;;;6.85;3.30;;;19.40;59.90;;;;;;7319653;32;20116;-63
2022/05/03 14:39:11;;;;;;;4.32;2.70;;;19.10;57.80;;;;;;7318215;32;20107;-63
2022/05/03 14:43:33;;;;;;;5.05;2.83;;;19.20;59.90;;;;;;7318059;32;20127;-63
2022/05/03 14:47:35;;;;;;;4.10;2.95;;;19.10;60.80;;;;;;7321794;32;20253;-63
2022/05/03 14:51:37;;;;;;;4.15;2.72;;;19.10;59.80;;;;;;7312245;32;20302;-64
2022/05/03 15:02:51;;;;;;;7.72;3.37;;;19.20;58.80;;;;;;7316764;32;20179;-63
2022/05/03 15:04:23;;;;;;;6.03;2.28;;;19.30;60.50;;;;;;7317757;32;20185;-62
2022/05/03 15:08:24;;;;;;;7.57;3.50;;;19.30;61.50;;;;;;7308851;32;20216;-63
2022/05/03 15:12:26;;;;;;;3.55;2.67;;;19.20;61.20;;;;;;7314818;32;20210;-62
2022/05/03 15:16:28;;;;;;;4.22;2.45;;;19.40;60.00;;;;;;7317554;32;20124;-63
2022/05/03 15:20:32;;;;;;;4.53;2.47;;;19.20;62.60;;;;;;7319045;32;20126;-63
2022/05/03 15:24:38;;;;;;;4.90;3.00;;;19.10;62.70;;;;;;7302689;32;20202;-63
2022/05/03 15:28:39;;;;;;;4.47;2.70;;;19.20;60.80;;;;;;7320439;32;20268;-65
2022/05/03 15:32:41;;;;;;;5.20;2.65;;;18.60;61.20;;;;;;7311501;32;20796;-64
2022/05/03 15:36:43;;;;;;;4.28;2.53;;;18.50;64.10;;;;;;7312673;32;20205;-63
2022/05/03 15:40:46;;;;;;;4.57;2.47;;;18.60;62.50;;;;;;7316690;32;20194;-63
2022/05/03 15:44:51;;;;;;;5.03;2.55;;;18.90;63.80;;;;;;7312862;32;20194;-63
2022/05/03 15:48:53;;;;;;;5.30;2.60;;;18.90;64.70;;;;;;7316617;32;20194;-63
2022/05/03 15:52:54;;;;;;;6.97;2.65;;;18.50;64.70;;;;;;7322073;32;20213;-64
2022/05/03 15:56:56;;;;;;;3.83;2.80;;;18.60;64.50;;;;;;7325004;32;20115;-63
2022/05/03 16:00:58;;;;;;;4.75;2.70;;;18.40;63.20;;;;;;7318383;32;20125;-63
2022/05/03 16:05:00;;;;;;;4.25;2.75;;;18.30;65.20;;;;;;7321179;32;20714;-62
2022/05/03 16:09:02;;;;;;;5.30;2.40;;;18.20;66.30;;;;;;7312638;32;20171;-63
2022/05/03 16:13:04;;;;;;;3.75;2.78;;;18.20;67.60;;;;;;7319659;32;20618;-62
2022/05/03 16:17:07;;;;;;;5.87;3.20;;;18.00;66.90;;;;;;7319241;32;20571;-62
2022/05/03 16:21:09;;;;;;;11.15;7.35;;;17.90;68.50;;;;;;7317382;32;20237;-64
2022/05/03 16:25:11;;;;;;;4.25;2.70;;;17.90;67.80;;;;;;7316895;32;20597;-62
2022/05/03 16:29:14;;;;;;;5.15;2.80;;;18.00;68.70;;;;;;7309551;32;20549;-62
2022/05/03 16:33:15;;;;;;;7.53;2.65;;;18.00;69.80;;;;;;7315602;32;20127;-63
2022/05/03 16:42:11;;;;;;;4.20;2.40;;;18.00;71.70;;;;;;7319426;32;20353;-63
2022/05/03 16:46:13;;;;;;;3.53;2.35;;;17.80;71.60;;;;;;7317059;32;20186;-61
2022/05/03 16:50:17;;;;;;;5.93;2.55;;;17.70;72.40;;;;;;7318804;32;20287;-63
2022/05/03 16:54:18;;;;;;;5.43;3.03;;;17.50;72.90;;;;;;7315443;32;20126;-62
2022/05/03 16:58:20;;;;;;;2.95;2.50;;;17.40;74.80;;;;;;7317390;32;20107;-63
2022/05/03 17:02:22;;;;;;;4.15;1.83;;;17.40;74.90;;;;;;7314969;32;20436;-62
2022/05/03 17:06:24;;;;;;;6.55;2.35;;;17.30;75.30;;;;;;7315229;32;20201;-63
2022/05/03 17:10:26;;;;;;;7.12;4.47;;;17.30;76.30;;;;;;7318095;32;20103;-62
2022/05/03 17:14:28;;;;;;;7.37;3.87;;;16.90;81.60;;;;;;7312437;32;20215;-63
2022/05/03 17:18:29;;;;;;;6.32;4.22;;;16.90;84.10;;;;;;7307740;32;20551;-61
2022/05/03 17:22:31;;;;;;;5.53;3.87;;;16.70;86.70;;;;;;7306873;32;20276;-62
2022/05/03 17:26:33;;;;;;;5.82;4.25;;;16.50;89.40;;;;;;7313035;32;20228;-60
2022/05/03 17:30:35;;;;;;;8.05;5.85;;;16.30;91.00;;;;;;7328989;32;20298;-62
2022/05/03 17:34:36;;;;;;;6.70;4.00;;;16.20;92.50;;;;;;7317562;32;20131;-62
2022/05/03 17:38:38;;;;;;;5.68;3.95;;;16.10;93.20;;;;;;7313266;32;20263;-62
2022/05/03 17:42:44;;;;;;;6.45;3.90;;;16.00;94.40;;;;;;7312497;32;20688;-62
2022/05/03 17:46:47;;;;;;;6.68;3.70;;;15.90;95.90;;;;;;7299710;32;20148;-61
2022/05/03 17:50:49;;;;;;;4.87;3.62;;;16.00;96.60;;;;;;7312375;32;20245;-62
2022/05/03 17:54:52;;;;;;;5.68;3.80;;;15.90;97.50;;;;;;7316239;32;20260;-64
2022/05/03 17:58:55;;;;;;;5.40;3.92;;;15.80;99.10;;;;;;7316721;32;20134;-65
2022/05/03 18:02:58;;;;;;;8.20;5.75;;;15.70;99.90;;;;;;7316587;32;20226;-64
2022/05/03 18:07:00;;;;;;;9.23;6.97;;;15.50;99.90;;;;;;7315323;32;20235;-65
2022/05/03 18:11:02;;;;;;;9.10;5.53;;;15.50;99.90;;;;;;7314770;32;20487;-64
2022/05/03 18:15:04;;;;;;;8.43;5.80;;;15.30;99.90;;;;;;7317215;32;20108;-63
2022/05/03 18:19:06;;;;;;;8.52;5.87;;;15.30;99.90;;;;;;7301815;32;20119;-61
2022/05/03 18:23:08;;;;;;;8.57;5.03;;;15.20;99.90;;;;;;7305562;32;20118;-65
2022/05/03 18:27:10;;;;;;;10.35;6.70;;;15.00;99.90;;;;;;7315546;32;20122;-65
2022/05/03 18:31:12;;;;;;;23.77;17.65;;;14.90;99.90;;;;;;7308662;32;20208;-63
2022/05/03 18:35:13;;;;;;;11.27;6.80;;;14.90;99.90;;;;;;7315308;32;20347;-64
2022/05/03 18:39:15;;;;;;;13.32;6.68;;;14.70;99.90;;;;;;7315094;32;20431;-64
2022/05/03 18:43:17;;;;;;;11.65;7.60;;;14.60;99.90;;;;;;7314837;32;20235;-63
2022/05/03 18:47:18;;;;;;;11.35;7.25;;;14.50;99.90;;;;;;7314529;32;20141;-60
2022/05/03 18:51:21;;;;;;;9.65;7.43;;;14.40;99.90;;;;;;7316669;32;20096;-60
2022/05/03 18:55:40;;;;;;;13.60;7.15;;;14.30;99.90;;;;;;7316548;32;20100;-64
2022/05/03 18:59:42;;;;;;;13.82;7.85;;;14.20;99.90;;;;;;7319887;32;20499;-65
2022/05/03 19:03:44;;;;;;;10.55;7.90;;;13.90;99.90;;;;;;7306651;32;20852;-65
2022/05/03 19:07:45;;;;;;;10.60;8.05;;;13.80;99.90;;;;;;7321040;32;20570;-66
2022/05/03 19:11:49;;;;;;;10.90;7.80;;;13.70;99.90;;;;;;7322486;32;20170;-66
2022/05/03 19:15:50;;;;;;;10.65;7.95;;;13.60;99.90;;;;;;7319926;32;20108;-66
2022/05/03 19:19:53;;;;;;;11.27;7.93;;;13.40;99.90;;;;;;7319465;32;20103;-64
2022/05/03 19:32:46;;;;;;;13.13;8.40;;;13.00;99.90;;;;;;7297064;32;20117;-64
2022/05/03 19:36:48;;;;;;;14.02;8.25;;;12.90;99.90;;;;;;7319764;32;20530;-65
2022/05/03 19:40:55;;;;;;;21.98;12.98;;;12.80;99.90;;;;;;7317900;32;20100;-64
2022/05/03 19:44:57;;;;;;;11.20;8.13;;;12.60;99.90;;;;;;7321810;32;20130;-64
2022/05/03 19:49:00;;;;;;;12.37;7.30;;;12.50;99.90;;;;;;7322352;32;20099;-64
2022/05/03 19:53:03;;;;;;;10.88;7.37;;;12.30;99.90;;;;;;7322701;32;20194;-62
2022/05/03 19:57:05;;;;;;;10.88;7.53;;;12.20;99.90;;;;;;7321475;32;20103;-64
2022/05/03 20:01:06;;;;;;;10.63;7.85;;;12.10;99.90;;;;;;7321043;32;20127;-63
2022/05/03 20:05:08;;;;;;;21.23;11.32;;;12.00;99.90;;;;;;7321996;32;20100;-65
2022/05/03 20:09:15;;;;;;;14.05;8.98;;;11.80;99.90;;;;;;7317477;32;20630;-65
2022/05/03 20:13:16;;;;;;;17.70;8.13;;;11.70;99.90;;;;;;7318594;32;20169;-64
2022/05/03 20:17:19;;;;;;;14.00;7.47;;;11.50;99.90;;;;;;7314788;32;20958;-62
2022/05/03 20:21:21;;;;;;;12.45;8.85;;;11.30;99.90;;;;;;7319861;32;20138;-64
2022/05/03 20:25:23;;;;;;;15.20;8.02;;;11.20;99.90;;;;;;7314919;32;20186;-63
2022/05/03 20:29:25;;;;;;;17.55;7.97;;;11.00;99.90;;;;;;7319895;32;20194;-63
2022/05/03 20:33:27;;;;;;;13.10;8.75;;;10.80;99.90;;;;;;7315272;32;20199;-63
2022/05/03 20:37:29;;;;;;;15.40;7.70;;;10.70;99.90;;;;;;7315921;32;20187;-61
2022/05/03 20:41:31;;;;;;;13.23;8.43;;;10.60;99.90;;;;;;7318121;32;20206;-64
2022/05/03 20:45:34;;;;;;;11.40;8.02;;;10.50;99.90;;;;;;7311510;32;20222;-63
2022/05/03 20:49:35;;;;;;;14.00;7.50;;;10.30;99.90;;;;;;7317654;32;20220;-66
2022/05/03 20:53:37;;;;;;;11.77;7.90;;;10.20;99.90;;;;;;7317574;32;20179;-65
2022/05/03 20:57:40;;;;;;;14.05;7.95;;;10.20;99.90;;;;;;7315207;32;20096;-64
2022/05/03 21:01:42;;;;;;;12.95;8.30;;;10.10;99.90;;;;;;7319072;32;20118;-64
2022/05/03 21:05:44;;;;;;;11.95;8.05;;;9.90;99.90;;;;;;7321040;32;20261;-64
2022/05/03 21:09:46;;;;;;;11.98;8.35;;;9.80;99.90;;;;;;7315618;32;20215;-66
2022/05/03 21:13:48;;;;;;;13.02;8.30;;;9.80;99.90;;;;;;7327386;32;20119;-63
2022/05/03 21:17:49;;;;;;;14.50;8.77;;;9.60;99.90;;;;;;7318059;32;20099;-65
2022/05/03 21:21:52;;;;;;;12.85;8.57;;;9.60;99.90;;;;;;7315171;32;20149;-61
2022/05/03 21:25:54;;;;;;;11.93;8.70;;;9.50;99.90;;;;;;7319094;32;20130;-61
2022/05/03 21:29:56;;;;;;;13.80;8.98;;;9.40;99.90;;;;;;7319455;32;20206;-62
2022/05/03 21:33:59;;;;;;;12.57;8.38;;;9.30;99.90;;;;;;7314954;32;20119;-61
2022/05/03 21:38:01;;;;;;;13.55;8.98;;;9.20;99.90;;;;;;7313928;32;20108;-62
2022/05/03 21:42:03;;;;;;;12.23;8.30;;;9.10;99.90;;;;;;7321403;32;20266;-60
2022/05/03 21:46:05;;;;;;;13.55;8.88;;;9.00;99.90;;;;;;7312776;32;20273;-61
2022/05/03 21:50:07;;;;;;;14.95;8.90;;;8.90;99.90;;;;;;7303558;32;20254;-61
2022/05/03 21:54:09;;;;;;;14.75;9.35;;;8.80;99.90;;;;;;7315849;32;20578;-59
2022/05/03 21:58:12;;;;;;;18.12;9.52;;;8.80;99.90;;;;;;7319052;32;20143;-61
2022/05/03 22:02:13;;;;;;;12.30;9.20;;;8.70;99.90;;;;;;7319018;32;20519;-61
2022/05/03 22:06:16;;;;;;;17.02;9.88;;;8.60;99.90;;;;;;7316714;32;20172;-60
2022/05/03 22:10:18;;;;;;;15.95;9.32;;;8.60;99.90;;;;;;7306569;32;20108;-61
2022/05/03 22:14:20;;;;;;;14.98;9.40;;;8.50;99.90;;;;;;7314752;32;20129;-60